createdAt,value
2018-02-20T00:02:16.081Z,75.25
2018-02-20T00:04:43.550Z,75.24
2018-02-20T00:07:11.026Z,75.25
2018-02-20T00:09:38.507Z,75.28
2018-02-20T00:12:06.046Z,75.34
2018-02-20T00:14:33.529Z,75.59
2018-02-20T00:17:01.013Z,75.76
2018-02-20T00:19:28.501Z,75.86
2018-02-20T00:21:56.026Z,75.73
2018-02-20T00:24:23.615Z,75.85
2018-02-20T00:26:51.091Z,75.98
2018-02-20T00:29:18.563Z,76.08
2018-02-20T00:31:46.112Z,76.38
2018-02-20T00:34:13.600Z,76.60
2018-02-20T00:36:41.079Z,76.79
2018-02-20T00:39:08.629Z,76.88
2018-02-20T00:41:36.541Z,76.99
2018-02-20T00:44:04.007Z,77.02
2018-02-20T00:46:31.546Z,76.90
2018-02-20T00:48:59.026Z,76.94
2018-02-20T00:51:26.540Z,76.80
2018-02-20T00:53:54.014Z,77.04
2018-02-20T00:56:21.495Z,77.04
2018-02-20T00:58:49.005Z,77.02
2018-02-20T01:01:16.482Z,77.16
2018-02-20T01:03:44.063Z,77.73
2018-02-20T01:06:12.432Z,77.68
2018-02-20T01:08:39.923Z,77.75
2018-02-20T01:11:07.462Z,77.35
2018-02-20T01:13:34.970Z,77.67
2018-02-20T01:16:02.449Z,77.40
2018-02-20T01:18:29.929Z,77.53
2018-02-20T01:20:57.406Z,77.87
2018-02-20T01:23:24.940Z,77.87
2018-02-20T01:25:52.623Z,77.84
2018-02-20T01:28:20.206Z,77.93
2018-02-20T01:30:47.763Z,78.01
2018-02-20T01:33:17.085Z,77.73
2018-02-20T01:35:44.687Z,77.61
2018-02-20T01:38:12.175Z,77.72
2018-02-20T01:40:39.640Z,77.45
2018-02-20T01:43:07.180Z,77.58
2018-02-20T01:45:34.783Z,77.47
2018-02-20T01:48:02.304Z,77.66
2018-02-20T01:50:29.791Z,77.96
2018-02-20T01:52:57.306Z,78.09
2018-02-20T01:55:24.840Z,77.77
2018-02-20T01:57:52.315Z,77.73
2018-02-20T02:00:19.857Z,78.03
2018-02-20T02:02:47.318Z,78.11
2018-02-20T02:05:14.804Z,78.06
2018-02-20T02:07:42.373Z,78.02
2018-02-20T02:10:09.965Z,77.97
2018-02-20T02:12:37.511Z,77.81
2018-02-20T02:15:05.035Z,78.31
2018-02-20T02:17:32.478Z,78.78
2018-02-20T02:19:59.954Z,79.13
2018-02-20T02:22:27.465Z,79.61
2018-02-20T02:24:54.930Z,79.61
2018-02-20T02:27:22.410Z,79.68
2018-02-20T02:29:49.886Z,79.89
2018-02-20T02:32:17.393Z,80.00
2018-02-20T02:34:44.875Z,80.10
2018-02-20T02:37:12.421Z,80.21
2018-02-20T02:39:39.905Z,80.19
2018-02-20T02:42:07.475Z,80.38
2018-02-20T02:44:34.946Z,80.68
2018-02-20T02:47:02.437Z,80.96
2018-02-20T02:49:29.910Z,80.66
2018-02-20T02:51:57.378Z,80.84
2018-02-20T02:54:24.890Z,81.27
2018-02-20T02:56:52.364Z,81.41
2018-02-20T02:59:19.865Z,81.55
2018-02-20T03:01:47.339Z,81.75
2018-02-20T03:04:14.916Z,81.92
2018-02-20T03:06:42.489Z,81.50
2018-02-20T03:09:10.060Z,81.45
2018-02-20T03:11:37.524Z,81.16
2018-02-20T03:14:05.045Z,81.41
2018-02-20T03:16:32.544Z,81.46
2018-02-20T03:19:00.043Z,81.16
2018-02-20T03:21:27.624Z,81.16
2018-02-20T03:23:55.093Z,81.27
2018-02-20T03:26:22.576Z,81.12
2018-02-20T03:28:50.039Z,81.43
2018-02-20T03:31:17.597Z,81.02
2018-02-20T03:33:45.772Z,81.22
2018-02-20T03:36:13.245Z,81.08
2018-02-20T03:38:40.726Z,81.06
2018-02-20T03:41:08.215Z,81.01
2018-02-20T03:43:35.689Z,81.26
2018-02-20T03:46:03.154Z,81.32
2018-02-20T03:48:30.724Z,81.17
2018-02-20T03:50:58.461Z,80.93
2018-02-20T03:53:25.921Z,80.84
2018-02-20T03:55:53.406Z,80.68
2018-02-20T03:58:20.872Z,80.72
2018-02-20T04:00:48.399Z,80.57
2018-02-20T04:03:15.873Z,80.87
2018-02-20T04:05:43.346Z,80.70
2018-02-20T04:08:10.832Z,80.50
2018-02-20T04:10:38.349Z,80.33
2018-02-20T04:13:05.908Z,80.16
2018-02-20T04:15:33.439Z,79.80
2018-02-20T04:18:01.031Z,79.67
2018-02-20T04:20:28.553Z,80.20
2018-02-20T04:22:56.026Z,80.68
2018-02-20T04:25:23.516Z,80.55
2018-02-20T04:27:51.022Z,80.72
2018-02-20T04:30:18.494Z,81.13
2018-02-20T04:32:45.981Z,81.15
2018-02-20T04:35:13.452Z,80.95
2018-02-20T04:37:40.948Z,81.14
2018-02-20T04:40:08.407Z,81.27
2018-02-20T04:42:35.953Z,80.84
2018-02-20T04:45:06.397Z,81.10
2018-02-20T04:47:33.862Z,81.43
2018-02-20T04:50:01.382Z,81.44
2018-02-20T04:52:28.954Z,81.60
2018-02-20T04:54:56.426Z,81.19
2018-02-20T04:57:23.898Z,81.43
2018-02-20T04:59:51.394Z,81.90
2018-02-20T05:02:18.876Z,81.60
2018-02-20T05:04:46.364Z,81.37
2018-02-20T05:07:13.877Z,81.33
2018-02-20T05:09:41.463Z,81.21
2018-02-20T05:12:09.029Z,81.52
2018-02-20T05:14:36.511Z,81.55
2018-02-20T05:17:03.995Z,81.48
2018-02-20T05:19:31.474Z,81.41
2018-02-20T05:21:58.954Z,81.79
2018-02-20T05:24:26.456Z,81.62
2018-02-20T05:26:53.925Z,81.76
2018-02-20T05:29:21.423Z,81.89
2018-02-20T05:31:48.897Z,81.89
2018-02-20T05:34:16.412Z,82.07
2018-02-20T05:36:43.889Z,82.25
2018-02-20T05:39:11.402Z,82.34
2018-02-20T05:41:38.890Z,82.34
2018-02-20T05:44:06.363Z,81.85
2018-02-20T05:46:33.940Z,81.67
2018-02-20T05:49:01.400Z,81.87
2018-02-20T05:51:28.873Z,82.11
2018-02-20T05:53:56.444Z,82.52
2018-02-20T05:56:23.944Z,82.98
2018-02-20T05:58:51.495Z,82.81
2018-02-20T06:01:18.952Z,83.10
2018-02-20T06:03:46.525Z,83.43
2018-02-20T06:06:13.989Z,83.55
2018-02-20T06:08:41.465Z,83.76
2018-02-20T06:11:08.994Z,83.76
2018-02-20T06:13:36.573Z,83.82
2018-02-20T06:16:04.089Z,83.58
2018-02-20T06:18:31.650Z,83.55
2018-02-20T06:20:59.108Z,83.23
2018-02-20T06:23:26.583Z,83.09
2018-02-20T06:25:54.121Z,83.02
2018-02-20T06:28:21.591Z,82.81
2018-02-20T06:30:49.095Z,82.36
2018-02-20T06:33:16.579Z,81.81
2018-02-20T06:35:44.152Z,81.63
2018-02-20T06:38:12.061Z,81.46
2018-02-20T06:40:39.532Z,80.83
2018-02-20T06:43:06.991Z,80.69
2018-02-20T06:45:34.464Z,80.26
2018-02-20T06:48:02.068Z,80.07
2018-02-20T06:50:29.619Z,79.66
2018-02-20T06:52:57.134Z,78.83
2018-02-20T06:55:24.601Z,77.16
2018-02-20T06:57:52.128Z,75.55
2018-02-20T07:00:19.585Z,74.72
2018-02-20T07:02:47.086Z,73.43
2018-02-20T07:05:14.611Z,72.70
2018-02-20T07:07:42.083Z,71.89
2018-02-20T07:10:09.558Z,72.78
2018-02-20T07:12:37.122Z,71.33
2018-02-20T07:15:04.588Z,71.78
2018-02-20T07:17:32.081Z,70.71
2018-02-20T07:19:59.648Z,71.32
2018-02-20T07:22:27.213Z,70.13
2018-02-20T07:24:54.702Z,70.61
2018-02-20T07:27:22.160Z,69.09
2018-02-20T07:29:49.632Z,68.97
2018-02-20T07:32:17.131Z,68.73
2018-02-20T07:34:44.609Z,68.94
2018-02-20T07:37:12.153Z,69.36
2018-02-20T07:39:39.710Z,67.51
2018-02-20T07:42:07.295Z,67.70
2018-02-20T07:44:34.792Z,67.62
2018-02-20T07:47:02.325Z,66.46
2018-02-20T07:49:29.801Z,66.02
2018-02-20T07:51:57.384Z,66.79
2018-02-20T07:54:24.945Z,66.24
2018-02-20T07:56:52.407Z,67.25
2018-02-20T07:59:19.928Z,66.42
2018-02-20T08:01:47.392Z,65.96
2018-02-20T08:04:14.877Z,66.78
2018-02-20T08:06:42.351Z,65.36
2018-02-20T08:09:09.838Z,63.35
2018-02-20T08:11:38.518Z,62.72
2018-02-20T08:14:05.997Z,61.58
2018-02-20T08:16:33.508Z,60.71
2018-02-20T08:19:00.971Z,59.99
2018-02-20T08:21:28.446Z,59.60
2018-02-20T08:23:55.941Z,59.49
2018-02-20T08:26:23.418Z,59.32
2018-02-20T08:28:50.985Z,59.53
2018-02-20T08:31:18.533Z,58.50
2018-02-20T08:33:46.019Z,58.42
2018-02-20T08:36:13.589Z,58.91
2018-02-20T08:38:41.093Z,58.04
2018-02-20T08:41:08.581Z,59.10
2018-02-20T08:43:36.046Z,58.38
2018-02-20T08:46:03.532Z,57.76
2018-02-20T08:48:30.992Z,57.43
2018-02-20T08:50:58.518Z,56.44
2018-02-20T08:53:25.979Z,55.57
2018-02-20T08:55:53.484Z,54.42
2018-02-20T08:58:21.482Z,53.86
2018-02-20T09:00:48.956Z,52.45
2018-02-20T09:03:16.437Z,52.26
2018-02-20T09:05:43.917Z,51.46
2018-02-20T09:08:11.415Z,49.93
2018-02-20T09:10:38.871Z,48.51
2018-02-20T09:13:06.349Z,49.04
2018-02-20T09:15:33.830Z,49.76
2018-02-20T09:18:01.309Z,48.36
2018-02-20T09:20:28.776Z,48.76
2018-02-20T09:22:56.346Z,48.53
2018-02-20T09:25:23.814Z,48.04
2018-02-20T09:27:51.289Z,50.26
2018-02-20T09:30:18.852Z,47.66
2018-02-20T09:32:46.336Z,46.90
2018-02-20T09:35:13.798Z,44.15
2018-02-20T09:37:41.286Z,43.21
2018-02-20T09:40:08.816Z,44.84
2018-02-20T09:42:36.328Z,42.71
2018-02-20T09:45:03.894Z,44.05
2018-02-20T09:47:31.368Z,45.87
2018-02-20T09:49:58.909Z,45.62
2018-02-20T09:52:26.398Z,46.51
2018-02-20T09:54:53.894Z,46.69
2018-02-20T09:57:21.362Z,45.97
2018-02-20T09:59:48.910Z,46.94
2018-02-20T10:02:17.725Z,47.98
2018-02-20T10:04:45.211Z,49.20
2018-02-20T10:07:12.692Z,49.18
2018-02-20T10:09:40.226Z,48.06
2018-02-20T10:12:07.811Z,48.28
2018-02-20T10:14:35.384Z,48.43
2018-02-20T10:17:02.946Z,48.29
2018-02-20T10:19:30.397Z,49.50
2018-02-20T10:21:57.886Z,49.25
2018-02-20T10:24:25.350Z,47.63
2018-02-20T10:26:52.822Z,46.82
2018-02-20T10:29:20.303Z,45.84
2018-02-20T10:31:47.953Z,46.03
2018-02-20T10:34:15.410Z,45.30
2018-02-20T10:36:42.927Z,45.45
2018-02-20T10:39:10.382Z,44.05
2018-02-20T10:41:37.957Z,45.45
2018-02-20T10:44:05.567Z,45.93
2018-02-20T10:46:33.029Z,45.75
2018-02-20T10:49:00.581Z,44.71
2018-02-20T10:51:28.138Z,44.91
2018-02-20T10:53:55.606Z,43.93
2018-02-20T10:56:23.197Z,43.23
2018-02-20T10:58:50.783Z,43.08
2018-02-20T11:01:18.254Z,43.98
2018-02-20T11:03:45.733Z,42.79
2018-02-20T11:06:13.204Z,42.37
2018-02-20T11:08:40.757Z,42.25
2018-02-20T11:11:08.221Z,41.10
2018-02-20T11:13:35.691Z,40.71
2018-02-20T11:16:03.166Z,41.54
2018-02-20T11:18:30.635Z,44.02
2018-02-20T11:20:58.208Z,42.68
2018-02-20T11:23:25.821Z,42.50
2018-02-20T11:25:53.341Z,42.55
2018-02-20T11:28:20.823Z,42.76
2018-02-20T11:30:48.337Z,43.11
2018-02-20T11:33:15.804Z,43.23
2018-02-20T11:35:43.269Z,44.38
2018-02-20T11:38:10.809Z,43.54
2018-02-20T11:40:38.274Z,41.89
2018-02-20T11:43:05.770Z,41.88
2018-02-20T11:45:33.231Z,41.74
2018-02-20T11:48:00.724Z,41.31
2018-02-20T11:50:28.178Z,41.99
2018-02-20T11:52:55.647Z,42.74
2018-02-20T11:55:23.213Z,41.58
2018-02-20T11:57:50.779Z,42.68
2018-02-20T12:00:18.250Z,41.87
2018-02-20T12:02:45.768Z,41.69
2018-02-20T12:05:13.240Z,39.48
2018-02-20T12:07:40.793Z,39.66
2018-02-20T12:10:08.337Z,41.34
2018-02-20T12:12:35.810Z,41.31
2018-02-20T12:15:03.285Z,41.40
2018-02-20T12:17:30.745Z,40.07
2018-02-20T12:19:58.521Z,40.48
2018-02-20T12:22:25.997Z,40.39
2018-02-20T12:24:53.615Z,40.83
2018-02-20T12:27:21.299Z,39.68
2018-02-20T12:29:49.324Z,40.10
2018-02-20T12:32:17.103Z,39.70
2018-02-20T12:34:44.771Z,39.30
2018-02-20T12:37:12.236Z,39.68
2018-02-20T12:39:39.705Z,38.89
2018-02-20T12:42:07.185Z,39.27
2018-02-20T12:44:34.810Z,39.69
2018-02-20T12:47:02.279Z,38.94
2018-02-20T12:49:29.800Z,38.78
2018-02-20T12:51:57.382Z,39.54
2018-02-20T12:54:24.850Z,41.10
2018-02-20T12:56:52.366Z,41.19
2018-02-20T12:59:20.040Z,42.32
2018-02-20T13:01:47.530Z,41.27
2018-02-20T13:04:15.009Z,42.31
2018-02-20T13:06:42.517Z,44.41
2018-02-20T13:09:10.002Z,45.30
2018-02-20T13:11:37.462Z,44.56
2018-02-20T13:14:04.937Z,44.34
2018-02-20T13:16:32.493Z,44.98
2018-02-20T13:19:00.043Z,45.80
2018-02-20T13:21:27.533Z,46.11
2018-02-20T13:23:55.119Z,45.44
2018-02-20T13:26:23.005Z,45.57
2018-02-20T13:28:50.482Z,45.56
2018-02-20T13:31:17.954Z,44.38
2018-02-20T13:33:45.409Z,44.37
2018-02-20T13:36:12.880Z,43.98
2018-02-20T13:38:40.353Z,44.20
2018-02-20T13:41:07.833Z,44.62
2018-02-20T13:43:35.396Z,45.32
2018-02-20T13:46:02.970Z,45.73
2018-02-20T13:48:30.545Z,45.15
2018-02-20T13:50:58.302Z,44.69
2018-02-20T13:53:25.800Z,44.94
2018-02-20T13:55:53.378Z,45.19
2018-02-20T13:58:20.936Z,46.02
2018-02-20T14:00:48.407Z,47.14
2018-02-20T14:03:15.916Z,48.00
2018-02-20T14:05:43.394Z,49.66
2018-02-20T14:08:10.925Z,50.29
2018-02-20T14:10:38.500Z,50.10
2018-02-20T14:13:06.048Z,50.19
2018-02-20T14:15:33.541Z,50.99
2018-02-20T14:18:01.211Z,51.59
2018-02-20T14:20:28.701Z,51.58
2018-02-20T14:22:56.201Z,52.17
2018-02-20T14:25:23.724Z,52.34
2018-02-20T14:27:51.193Z,52.54
2018-02-20T14:30:18.784Z,52.10
2018-02-20T14:32:46.383Z,51.95
2018-02-20T14:35:13.895Z,51.74
2018-02-20T14:37:41.381Z,51.99
2018-02-20T14:40:08.850Z,53.18
2018-02-20T14:42:36.328Z,53.18
2018-02-20T14:45:03.797Z,53.19
2018-02-20T14:47:31.270Z,53.56
2018-02-20T14:49:58.738Z,54.72
2018-02-20T14:52:26.230Z,54.38
2018-02-20T14:54:53.690Z,54.82
2018-02-20T14:57:21.169Z,55.00
2018-02-20T14:59:48.662Z,55.06
2018-02-20T15:02:16.138Z,55.61
2018-02-20T15:04:43.605Z,56.41
2018-02-20T15:07:11.107Z,57.18
2018-02-20T15:09:38.607Z,57.24
2018-02-20T15:12:06.073Z,57.32
2018-02-20T15:14:33.581Z,58.07
2018-02-20T15:17:01.111Z,56.91
2018-02-20T15:19:28.583Z,56.96
2018-02-20T15:21:56.219Z,57.27
2018-02-20T15:24:23.711Z,57.70
2018-02-20T15:26:51.183Z,58.39
2018-02-20T15:29:18.677Z,58.52
2018-02-20T15:31:46.141Z,58.96
2018-02-20T15:34:13.776Z,59.09
2018-02-20T15:36:41.304Z,59.28
2018-02-20T15:39:08.774Z,59.08
2018-02-20T15:41:36.706Z,59.65
2018-02-20T15:44:04.224Z,59.18
2018-02-20T15:46:31.764Z,60.04
2018-02-20T15:48:59.192Z,60.22
2018-02-20T15:51:26.672Z,59.91
2018-02-20T15:53:54.188Z,59.88
2018-02-20T15:56:21.779Z,60.68
2018-02-20T15:58:49.382Z,60.81
2018-02-20T16:01:16.978Z,60.85
2018-02-20T16:03:44.504Z,61.40
2018-02-20T16:06:12.006Z,61.40
2018-02-20T16:08:39.474Z,61.62
2018-02-20T16:11:06.936Z,62.12
2018-02-20T16:13:34.491Z,62.49
2018-02-20T16:16:15.849Z,62.86
2018-02-20T16:18:43.337Z,62.97
2018-02-20T16:21:10.913Z,63.48
2018-02-20T16:23:38.370Z,63.22
2018-02-20T16:26:05.857Z,63.62
2018-02-20T16:28:33.337Z,63.84
2018-02-20T16:31:00.808Z,64.20
2018-02-20T16:33:28.414Z,64.88
2018-02-20T16:35:55.944Z,64.33
2018-02-20T16:38:23.471Z,64.54
2018-02-20T16:40:51.015Z,64.91
2018-02-20T16:43:18.583Z,65.11
2018-02-20T16:45:46.137Z,65.30
2018-02-20T16:48:13.616Z,65.65
2018-02-20T16:50:41.337Z,66.03
2018-02-20T16:53:08.839Z,66.21
2018-02-20T16:55:36.290Z,66.66
2018-02-20T16:58:03.766Z,66.90
2018-02-20T17:00:31.280Z,66.85
2018-02-20T17:02:58.748Z,67.32
2018-02-20T17:05:27.501Z,67.31
2018-02-20T17:07:54.992Z,67.62
2018-02-20T17:10:22.483Z,67.70
2018-02-20T17:12:49.967Z,67.62
2018-02-20T17:15:17.439Z,67.28
2018-02-20T17:17:45.002Z,67.34
2018-02-20T17:20:12.601Z,67.04
2018-02-20T17:22:40.109Z,66.80
2018-02-20T17:25:07.666Z,66.43
2018-02-20T17:27:35.155Z,66.57
2018-02-20T17:30:02.632Z,66.49
2018-02-20T17:32:30.099Z,65.64
2018-02-20T17:34:57.690Z,65.19
2018-02-20T17:37:25.218Z,65.42
2018-02-20T17:39:52.709Z,65.34
2018-02-20T17:42:20.246Z,65.24
2018-02-20T17:44:47.849Z,65.01
2018-02-20T17:47:15.354Z,65.05
2018-02-20T17:49:42.822Z,64.81
2018-02-20T17:52:10.317Z,65.45
2018-02-20T17:54:37.782Z,65.21
2018-02-20T17:57:05.277Z,65.00
2018-02-20T17:59:32.740Z,65.22
2018-02-20T18:02:00.215Z,65.75
2018-02-20T18:04:27.691Z,65.53
2018-02-20T18:06:55.238Z,66.28
2018-02-20T18:09:22.872Z,66.28
2018-02-20T18:11:50.500Z,66.59
2018-02-20T18:14:17.990Z,66.97
2018-02-20T18:16:45.545Z,67.25
2018-02-20T18:19:13.020Z,67.45
2018-02-20T18:21:40.600Z,67.39
2018-02-20T18:24:08.133Z,67.70
2018-02-20T18:26:35.631Z,67.67
2018-02-20T18:29:03.116Z,67.39
2018-02-20T18:31:30.581Z,67.17
2018-02-20T18:33:58.121Z,67.50
2018-02-20T18:36:25.593Z,66.94
2018-02-20T18:38:53.602Z,66.70
2018-02-20T18:41:21.102Z,67.02
2018-02-20T18:43:48.587Z,67.10
2018-02-20T18:46:16.138Z,66.82
2018-02-20T18:48:43.612Z,66.75
2018-02-20T18:51:11.158Z,67.24
2018-02-20T18:53:38.642Z,67.10
2018-02-20T18:56:06.117Z,67.37
2018-02-20T18:58:33.591Z,67.61
2018-02-20T19:01:01.390Z,67.34
2018-02-20T19:03:28.928Z,67.76
2018-02-20T19:05:56.541Z,68.24
2018-02-20T19:08:24.025Z,67.94
2018-02-20T19:10:51.510Z,67.91
2018-02-20T19:13:19.929Z,68.49
2018-02-20T19:15:47.446Z,68.22
2018-02-20T19:18:14.923Z,68.04
2018-02-20T19:20:42.407Z,68.22
2018-02-20T19:23:09.925Z,68.13
2018-02-20T19:25:37.409Z,68.84
2018-02-20T19:28:04.891Z,69.15
2018-02-20T19:30:32.380Z,69.15
2018-02-20T19:32:59.853Z,69.32
2018-02-20T19:35:27.319Z,69.27
2018-02-20T19:37:54.881Z,70.37
2018-02-20T19:40:22.490Z,70.46
2018-02-20T19:42:50.067Z,70.67
2018-02-20T19:45:17.557Z,71.00
2018-02-20T19:47:45.033Z,71.48
2018-02-20T19:50:12.495Z,71.27
2018-02-20T19:52:40.113Z,71.70
2018-02-20T19:55:07.653Z,71.52
2018-02-20T19:57:36.016Z,71.74
2018-02-20T20:00:03.511Z,71.62
2018-02-20T20:02:31.051Z,71.32
2018-02-20T20:04:58.529Z,71.41
2018-02-20T20:07:26.065Z,72.21
2018-02-20T20:09:53.632Z,72.01
2018-02-20T20:12:21.154Z,72.06
2018-02-20T20:14:48.939Z,72.60
2018-02-20T20:17:16.397Z,72.82
2018-02-20T20:19:43.896Z,73.32
2018-02-20T20:22:11.513Z,73.49
2018-02-20T20:24:38.986Z,74.27
2018-02-20T20:27:06.482Z,74.14
2018-02-20T20:29:33.938Z,74.72
2018-02-20T20:32:01.547Z,75.41
2018-02-20T20:34:29.169Z,75.49
2018-02-20T20:36:56.645Z,75.55
2018-02-20T20:39:25.475Z,75.20
2018-02-20T20:41:52.953Z,75.33
2018-02-20T20:44:20.462Z,75.14
2018-02-20T20:46:47.955Z,75.13
2018-02-20T20:49:15.441Z,75.06
2018-02-20T20:51:42.908Z,74.95
2018-02-20T20:54:10.409Z,75.14
2018-02-20T20:56:37.885Z,74.91
2018-02-20T20:59:05.347Z,75.13
2018-02-20T21:01:32.834Z,74.61
2018-02-20T21:04:00.392Z,74.80
2018-02-20T21:06:27.879Z,74.81
2018-02-20T21:08:55.356Z,74.73
2018-02-20T21:11:22.843Z,74.77
2018-02-20T21:13:50.313Z,75.18
2018-02-20T21:16:17.852Z,75.14
2018-02-20T21:18:45.349Z,74.96
2018-02-20T21:21:13.007Z,75.13
2018-02-20T21:23:40.486Z,74.95
2018-02-20T21:26:07.960Z,74.82
2018-02-20T21:28:35.440Z,74.94
2018-02-20T21:31:02.985Z,75.21
2018-02-20T21:33:30.505Z,75.09
2018-02-20T21:35:58.076Z,75.54
2018-02-20T21:38:25.570Z,75.69
2018-02-20T21:40:53.062Z,76.39
2018-02-20T21:43:20.569Z,76.39
2018-02-20T21:45:48.107Z,76.22
2018-02-20T21:48:15.575Z,76.51
2018-02-20T21:50:43.164Z,76.53
2018-02-20T21:53:10.641Z,76.64
2018-02-20T21:55:38.128Z,76.92
2018-02-20T21:58:05.607Z,76.58
2018-02-20T22:00:33.099Z,76.80
2018-02-20T22:03:00.568Z,76.54
2018-02-20T22:05:28.080Z,76.72
2018-02-20T22:07:55.561Z,76.78
2018-02-20T22:10:23.143Z,77.32
2018-02-20T22:12:50.628Z,77.07
2018-02-20T22:15:18.101Z,76.96
2018-02-20T22:17:45.646Z,76.86
2018-02-20T22:20:13.142Z,77.03
2018-02-20T22:22:40.649Z,77.07
2018-02-20T22:25:08.158Z,77.29
2018-02-20T22:27:35.640Z,77.54
2018-02-20T22:30:03.209Z,77.32
2018-02-20T22:32:30.762Z,77.55
2018-02-20T22:34:58.241Z,77.60
2018-02-20T22:37:25.735Z,77.71
2018-02-20T22:39:53.210Z,78.10
2018-02-20T22:42:21.584Z,77.70
2018-02-20T22:44:49.137Z,77.64
2018-02-20T22:47:16.613Z,77.76
2018-02-20T22:49:44.193Z,77.88
2018-02-20T22:52:11.754Z,78.32
2018-02-20T22:54:39.249Z,78.12
2018-02-20T22:57:06.772Z,78.60
2018-02-20T22:59:34.422Z,78.41
2018-02-20T23:02:01.882Z,78.46
2018-02-20T23:04:29.468Z,78.31
2018-02-20T23:06:56.990Z,78.42
2018-02-20T23:09:24.600Z,78.55
2018-02-20T23:11:52.104Z,78.49
2018-02-20T23:14:19.578Z,78.07
2018-02-20T23:16:47.061Z,78.63
2018-02-20T23:19:14.565Z,78.42
2018-02-20T23:21:42.049Z,78.78
2018-02-20T23:24:09.543Z,79.03
2018-02-20T23:26:37.066Z,79.18
2018-02-20T23:29:04.641Z,79.13
2018-02-20T23:31:32.194Z,78.99
2018-02-20T23:33:59.662Z,78.97
2018-02-20T23:36:27.152Z,79.05
2018-02-20T23:38:54.638Z,78.97
2018-02-20T23:41:22.191Z,78.97
2018-02-20T23:43:49.666Z,78.93
2018-02-20T23:46:17.161Z,78.99
2018-02-20T23:48:45.326Z,79.01
2018-02-20T23:51:18.474Z,79.14
2018-02-20T23:53:46.308Z,79.24
2018-02-20T23:56:13.780Z,79.09
2018-02-20T23:58:41.259Z,79.41
